Time;durP1;ratioP1;P1;durP2;ratioP2;P2;SDS_P1;SDS_P2;PMS_P1;PMS_P2;Temp;Humidity;BMP_temperature;BMP_pressure;BME280_temperature;BME280_humidity;BME280_pressure;Samples;Min_cycle;Max_cycle;Signal;HPM_P1;HPM_P2
2021/05/05 00:01:57;;;;;;;3.15;1.30;;;;;;;;;;5073280;28;20029;-77
2021/05/05 00:04:24;;;;;;;2.90;1.83;;;;;;;;;;5073354;28;20447;-78
2021/05/05 00:06:50;;;;;;;3.22;1.77;;;;;;;;;;5073030;28;20028;-77
2021/05/05 00:09:17;;;;;;;5.03;1.50;;;;;;;;;;5073038;28;20021;-78
2021/05/05 00:11:43;;;;;;;6.35;2.20;;;;;;;;;;5073054;28;20024;-78
2021/05/05 00:14:10;;;;;;;3.05;1.40;;;;;;;;;;5073055;28;20021;-78
2021/05/05 00:16:36;;;;;;;3.38;1.35;;;;;;;;;;5073009;28;20067;-78
2021/05/05 00:19:02;;;;;;;3.22;1.65;;;;;;;;;;5073029;28;20476;-78
2021/05/05 00:21:29;;;;;;;3.10;1.73;;;;;;;;;;5054979;28;20032;-78
2021/05/05 00:23:55;;;;;;;2.83;1.60;;;;;;;;;;5072844;28;20170;-78
2021/05/05 00:26:21;;;;;;;3.90;1.50;;;;;;;;;;5055016;28;20482;-78
2021/05/05 00:28:47;;;;;;;4.22;1.52;;;;;;;;;;5072931;28;20467;-78
2021/05/05 00:31:14;;;;;;;3.63;1.63;;;;;;;;;;5073075;28;20043;-77
2021/05/05 00:33:40;;;;;;;5.00;1.65;;;;;;;;;;5072904;28;20411;-77
2021/05/05 00:36:06;;;;;;;2.80;1.70;;;;;;;;;;5072726;28;20119;-78
2021/05/05 00:38:32;;;;;;;3.33;1.20;;;;;;;;;;5072900;28;20024;-78
2021/05/05 00:40:58;;;;;;;2.08;1.25;;;;;;;;;;5072802;28;20032;-77
2021/05/05 00:43:24;;;;;;;3.72;1.65;;;;;;;;;;5073138;28;20029;-78
2021/05/05 00:45:50;;;;;;;5.07;1.67;;;;;;;;;;5076469;28;20408;-78
2021/05/05 00:48:16;;;;;;;3.88;2.00;;;;;;;;;;5076489;28;20032;-78
2021/05/05 00:50:43;;;;;;;2.47;1.60;;;;;;;;;;5076435;28;20526;-78
2021/05/05 00:53:09;;;;;;;4.13;1.88;;;;;;;;;;5058602;28;20082;-78
2021/05/05 00:55:36;;;;;;;3.95;1.80;;;;;;;;;;5076249;28;20450;-78
2021/05/05 00:58:02;;;;;;;4.75;1.83;;;;;;;;;;5076230;28;20025;-77
2021/05/05 01:00:28;;;;;;;2.20;1.33;;;;;;;;;;5076408;28;20028;-78
2021/05/05 01:02:54;;;;;;;3.58;1.23;;;;;;;;;;5076198;28;20043;-78
2021/05/05 01:05:20;;;;;;;117.75;91.07;;;;;;;;;;5076153;28;20029;-78
2021/05/05 01:07:47;;;;;;;30.17;23.15;;;;;;;;;;5076092;28;20029;-78
2021/05/05 01:10:14;;;;;;;6.88;3.60;;;;;;;;;;5076238;28;20031;-78
2021/05/05 01:12:40;;;;;;;5.47;2.05;;;;;;;;;;5075964;28;20422;-78
2021/05/05 01:15:07;;;;;;;2.83;1.60;;;;;;;;;;5076189;28;20074;-78
2021/05/05 01:17:33;;;;;;;5.22;1.60;;;;;;;;;;5076003;28;20075;-78
2021/05/05 01:20:00;;;;;;;3.70;1.60;;;;;;;;;;5075695;28;20399;-78
2021/05/05 01:22:26;;;;;;;2.85;1.75;;;;;;;;;;5076020;28;20036;-78
2021/05/05 01:24:52;;;;;;;7.03;1.63;;;;;;;;;;5075624;28;20119;-78
2021/05/05 01:27:19;;;;;;;4.88;1.83;;;;;;;;;;5075791;28;20032;-77
2021/05/05 01:29:46;;;;;;;4.22;1.65;;;;;;;;;;5075859;28;20025;-77
2021/05/05 01:32:12;;;;;;;3.85;1.60;;;;;;;;;;5075668;28;20051;-78
2021/05/05 01:34:38;;;;;;;3.65;2.40;;;;;;;;;;5075599;28;20059;-78
2021/05/05 01:37:04;;;;;;;5.90;1.70;;;;;;;;;;5075727;28;20546;-78
2021/05/05 01:39:31;;;;;;;4.55;2.10;;;;;;;;;;5075675;28;20107;-77
2021/05/05 01:41:57;;;;;;;6.32;2.03;;;;;;;;;;5075798;28;20063;-77
2021/05/05 01:44:31;;;;;;;4.97;1.80;;;;;;;;;;5075453;28;20033;-77
2021/05/05 01:46:57;;;;;;;4.97;1.83;;;;;;;;;;5075380;28;20040;-77
2021/05/05 01:49:25;;;;;;;4.95;1.77;;;;;;;;;;5075399;28;20468;-77
2021/05/05 01:51:52;;;;;;;4.55;1.95;;;;;;;;;;5075322;28;20040;-77
2021/05/05 01:54:18;;;;;;;4.45;1.85;;;;;;;;;;5075505;28;20039;-77
2021/05/05 01:56:45;;;;;;;6.35;2.50;;;;;;;;;;5074203;28;20024;-77
2021/05/05 01:59:11;;;;;;;4.88;2.55;;;;;;;;;;5075197;28;20032;-77
2021/05/05 02:01:37;;;;;;;3.92;1.60;;;;;;;;;;5074993;28;20391;-77
2021/05/05 02:04:03;;;;;;;2.75;1.95;;;;;;;;;;5075106;28;20094;-76
2021/05/05 02:06:30;;;;;;;4.93;1.98;;;;;;;;;;5075006;28;20464;-77
2021/05/05 02:08:57;;;;;;;2.92;2.50;;;;;;;;;;5075099;28;20027;-76
2021/05/05 02:11:24;;;;;;;4.72;2.10;;;;;;;;;;5075106;28;20472;-77
2021/05/05 02:13:50;;;;;;;3.92;2.03;;;;;;;;;;5074798;28;20059;-77
2021/05/05 02:16:16;;;;;;;3.83;1.77;;;;;;;;;;5074770;28;20055;-77
2021/05/05 02:18:42;;;;;;;5.55;2.13;;;;;;;;;;5074764;28;20052;-77
2021/05/05 02:21:09;;;;;;;5.15;2.35;;;;;;;;;;5074855;28;20016;-77
2021/05/05 02:23:35;;;;;;;3.58;2.20;;;;;;;;;;5074567;28;20483;-77
2021/05/05 02:26:01;;;;;;;4.03;2.03;;;;;;;;;;5074845;28;20073;-77
2021/05/05 02:28:28;;;;;;;4.53;2.00;;;;;;;;;;5074934;28;20487;-77
2021/05/05 02:30:55;;;;;;;7.88;2.60;;;;;;;;;;5074675;28;20109;-77
2021/05/05 02:33:21;;;;;;;6.15;2.17;;;;;;;;;;5074543;28;20035;-77
2021/05/05 02:35:47;;;;;;;2.92;1.92;;;;;;;;;;5074281;28;20060;-77
2021/05/05 02:38:13;;;;;;;4.68;2.15;;;;;;;;;;5056302;28;20418;-78
2021/05/05 02:40:39;;;;;;;5.70;2.40;;;;;;;;;;5074342;28;20375;-77
2021/05/05 02:43:05;;;;;;;6.50;2.35;;;;;;;;;;5074069;28;20025;-77
2021/05/05 02:45:32;;;;;;;6.22;2.60;;;;;;;;;;5074190;28;20025;-77
2021/05/05 02:47:58;;;;;;;5.90;1.95;;;;;;;;;;5074085;28;20032;-77
2021/05/05 02:50:24;;;;;;;4.90;3.05;;;;;;;;;;5074136;28;20029;-77
2021/05/05 02:52:50;;;;;;;4.68;2.60;;;;;;;;;;5074038;28;20772;-77
2021/05/05 02:55:16;;;;;;;6.50;2.30;;;;;;;;;;5074066;28;20078;-77
2021/05/05 02:57:42;;;;;;;4.22;2.13;;;;;;;;;;5074076;28;20138;-77
2021/05/05 03:00:09;;;;;;;6.43;2.42;;;;;;;;;;5073759;28;20089;-77
2021/05/05 03:02:35;;;;;;;4.70;2.13;;;;;;;;;;5073755;28;20108;-76
2021/05/05 03:05:03;;;;;;;7.20;2.42;;;;;;;;;;5073847;28;20561;-77
2021/05/05 03:07:29;;;;;;;5.22;2.17;;;;;;;;;;5073795;28;20379;-77
2021/05/05 03:09:55;;;;;;;4.22;2.72;;;;;;;;;;5073730;28;20033;-77
2021/05/05 03:12:21;;;;;;;4.88;2.00;;;;;;;;;;5073665;28;20108;-77
2021/05/05 03:14:47;;;;;;;5.00;2.13;;;;;;;;;;5073792;28;20031;-77
2021/05/05 03:17:13;;;;;;;4.40;2.67;;;;;;;;;;5074026;28;20044;-77
2021/05/05 03:19:40;;;;;;;8.63;2.42;;;;;;;;;;5073487;28;20462;-77
2021/05/05 03:22:06;;;;;;;5.03;2.22;;;;;;;;;;5073760;28;20438;-77
2021/05/05 03:24:32;;;;;;;5.70;2.15;;;;;;;;;;5073433;28;20063;-77
2021/05/05 03:26:58;;;;;;;6.78;2.22;;;;;;;;;;5073558;28;20035;-77
2021/05/05 03:29:24;;;;;;;6.72;2.15;;;;;;;;;;5056014;28;20384;-77
2021/05/05 03:31:52;;;;;;;6.15;2.58;;;;;;;;;;5073648;28;20040;-77
2021/05/05 03:34:18;;;;;;;8.25;3.20;;;;;;;;;;5073518;28;20032;-76
2021/05/05 03:36:44;;;;;;;6.25;2.92;;;;;;;;;;5073484;28;20047;-78
2021/05/05 03:39:10;;;;;;;7.07;3.47;;;;;;;;;;5073564;28;20138;-78
2021/05/05 03:41:37;;;;;;;7.95;3.08;;;;;;;;;;5073388;28;20468;-76
2021/05/05 03:44:03;;;;;;;6.00;2.50;;;;;;;;;;5073487;28;20089;-76
2021/05/05 03:46:29;;;;;;;8.02;2.50;;;;;;;;;;5073776;28;20467;-76
2021/05/05 03:48:56;;;;;;;14.00;9.45;;;;;;;;;;5073487;28;20213;-77
2021/05/05 03:51:22;;;;;;;21.58;14.82;;;;;;;;;;5073305;28;20028;-78
2021/05/05 03:53:48;;;;;;;13.35;10.27;;;;;;;;;;5073367;28;20060;-77
2021/05/05 03:56:14;;;;;;;8.27;3.30;;;;;;;;;;5055173;28;20031;-76
2021/05/05 03:58:40;;;;;;;4.95;2.25;;;;;;;;;;5073425;28;20025;-77
2021/05/05 04:01:06;;;;;;;5.20;2.30;;;;;;;;;;5073194;28;20036;-77
2021/05/05 04:03:32;;;;;;;4.45;2.55;;;;;;;;;;5073120;28;20029;-77
2021/05/05 04:05:58;;;;;;;4.53;2.60;;;;;;;;;;5073314;28;20453;-76
2021/05/05 04:08:25;;;;;;;3.72;2.25;;;;;;;;;;5073172;28;20021;-77
2021/05/05 04:10:51;;;;;;;4.72;2.38;;;;;;;;;;5073249;28;20024;-77
2021/05/05 04:13:17;;;;;;;6.03;2.75;;;;;;;;;;5073180;28;20380;-77
2021/05/05 04:15:43;;;;;;;5.38;2.30;;;;;;;;;;5072992;28;20039;-77
2021/05/05 04:18:09;;;;;;;6.68;2.25;;;;;;;;;;5073072;28;20035;-78
2021/05/05 04:20:35;;;;;;;6.78;2.33;;;;;;;;;;5059165;28;20403;-77
2021/05/05 04:23:01;;;;;;;6.47;3.00;;;;;;;;;;5076968;28;20063;-78
2021/05/05 04:25:28;;;;;;;8.25;3.08;;;;;;;;;;5076876;28;20468;-77
2021/05/05 04:27:54;;;;;;;5.95;3.17;;;;;;;;;;5076934;28;20035;-76
2021/05/05 04:30:21;;;;;;;13.52;3.40;;;;;;;;;;5058801;28;20127;-76
2021/05/05 04:32:48;;;;;;;9.07;3.75;;;;;;;;;;5076824;28;20121;-76
2021/05/05 04:35:14;;;;;;;7.18;3.00;;;;;;;;;;5076414;28;20024;-76
2021/05/05 04:37:41;;;;;;;4.00;2.30;;;;;;;;;;5076634;28;20155;-76
2021/05/05 04:40:07;;;;;;;10.95;2.83;;;;;;;;;;5076813;28;20024;-76
2021/05/05 04:42:34;;;;;;;6.75;2.28;;;;;;;;;;5076595;28;20460;-76
2021/05/05 04:45:02;;;;;;;7.57;4.43;;;;;;;;;;5076555;28;20040;-76
2021/05/05 04:47:28;;;;;;;7.63;4.25;;;;;;;;;;5076375;28;20047;-77
2021/05/05 04:49:54;;;;;;;17.88;13.43;;;;;;;;;;5076622;28;20025;-77
2021/05/05 04:52:21;;;;;;;25.13;18.38;;;;;;;;;;5076310;28;20028;-77
2021/05/05 04:54:47;;;;;;;13.02;6.78;;;;;;;;;;5076222;28;20375;-77
2021/05/05 04:57:13;;;;;;;10.18;6.32;;;;;;;;;;5076428;28;20063;-77
2021/05/05 04:59:39;;;;;;;8.25;3.30;;;;;;;;;;5076476;28;20028;-77
2021/05/05 05:02:05;;;;;;;8.98;4.00;;;;;;;;;;5076238;28;20035;-76
2021/05/05 05:04:33;;;;;;;8.98;4.32;;;;;;;;;;5076244;28;20369;-77
2021/05/05 05:06:59;;;;;;;7.95;3.80;;;;;;;;;;5076009;28;20029;-77
2021/05/05 05:09:25;;;;;;;8.30;3.78;;;;;;;;;;5076011;28;20043;-77
2021/05/05 05:11:51;;;;;;;5.85;2.65;;;;;;;;;;5075954;28;20025;-76
2021/05/05 05:14:17;;;;;;;4.63;2.92;;;;;;;;;;5075372;28;20039;-76
2021/05/05 05:16:43;;;;;;;4.85;2.45;;;;;;;;;;5075662;28;20105;-77
2021/05/05 05:19:09;;;;;;;6.68;3.38;;;;;;;;;;5075737;28;20032;-78
2021/05/05 05:21:36;;;;;;;12.18;5.35;;;;;;;;;;5082109;28;20089;-76
2021/05/05 05:24:02;;;;;;;7.88;2.88;;;;;;;;;;5094986;28;20036;-76
2021/05/05 05:26:28;;;;;;;5.40;2.92;;;;;;;;;;5095413;28;20028;-77
2021/05/05 05:28:54;;;;;;;5.97;2.58;;;;;;;;;;5094796;28;20107;-73
2021/05/05 05:31:20;;;;;;;12.20;3.22;;;;;;;;;;5093620;28;20473;-78
2021/05/05 05:33:47;;;;;;;10.80;3.53;;;;;;;;;;5094131;28;20040;-77
2021/05/05 05:36:13;;;;;;;6.22;2.40;;;;;;;;;;5093569;28;20044;-76
2021/05/05 05:38:39;;;;;;;8.85;5.35;;;;;;;;;;5093942;28;20028;-78
2021/05/05 05:41:05;;;;;;;35.35;23.80;;;;;;;;;;5073483;28;20028;-77
2021/05/05 05:43:31;;;;;;;9.30;4.60;;;;;;;;;;5092978;28;20463;-76
2021/05/05 05:45:57;;;;;;;8.32;2.85;;;;;;;;;;5076141;28;20031;-77
2021/05/05 05:48:23;;;;;;;9.40;2.83;;;;;;;;;;5069270;28;20185;-77
2021/05/05 05:50:49;;;;;;;5.75;2.40;;;;;;;;;;5072141;28;20017;-78
2021/05/05 05:53:15;;;;;;;9.60;3.30;;;;;;;;;;5072255;28;20675;-78
2021/05/05 05:55:44;;;;;;;9.35;5.80;;;;;;;;;;5071989;28;20490;-77
2021/05/05 05:58:10;;;;;;;19.38;12.75;;;;;;;;;;5072648;28;20031;-78
2021/05/05 06:00:36;;;;;;;13.18;8.18;;;;;;;;;;5072823;28;20097;-77
2021/05/05 06:03:05;;;;;;;6.50;5.43;;;;;;;;;;5072794;28;20051;-78
2021/05/05 06:05:32;;;;;;;21.10;11.73;;;;;;;;;;5071064;28;20039;-77
2021/05/05 06:07:58;;;;;;;18.70;10.13;;;;;;;;;;5072283;28;20115;-78
2021/05/05 06:10:24;;;;;;;10.75;4.72;;;;;;;;;;5071931;28;20047;-78
2021/05/05 06:12:50;;;;;;;5.93;3.35;;;;;;;;;;5071958;28;20024;-76
2021/05/05 06:15:16;;;;;;;7.70;3.92;;;;;;;;;;5072470;28;20028;-77
2021/05/05 06:17:42;;;;;;;7.63;3.83;;;;;;;;;;5072243;28;20142;-77
2021/05/05 06:20:09;;;;;;;7.82;3.70;;;;;;;;;;5072434;28;20391;-77
2021/05/05 06:22:36;;;;;;;9.00;2.72;;;;;;;;;;5071996;28;20029;-79
2021/05/05 06:25:03;;;;;;;8.95;2.30;;;;;;;;;;5072141;28;20090;-78
2021/05/05 06:27:29;;;;;;;11.75;2.65;;;;;;;;;;5071900;28;20059;-82
2021/05/05 06:29:55;;;;;;;18.75;4.65;;;;;;;;;;5072054;28;20491;-79
2021/05/05 06:32:22;;;;;;;38.25;13.00;;;;;;;;;;5071994;28;20032;-80
2021/05/05 06:34:48;;;;;;;7.68;3.15;;;;;;;;;;5072004;28;20099;-79
2021/05/05 06:37:16;;;;;;;10.15;3.50;;;;;;;;;;5050501;28;20052;-81
2021/05/05 06:39:42;;;;;;;6.10;2.20;;;;;;;;;;5051438;28;20051;-79
2021/05/05 06:42:08;;;;;;;6.25;3.08;;;;;;;;;;5051557;28;20021;-79
2021/05/05 06:44:34;;;;;;;11.55;3.70;;;;;;;;;;5050752;28;20025;-79
2021/05/05 06:47:00;;;;;;;8.73;2.67;;;;;;;;;;5031372;28;20033;-79
2021/05/05 06:49:29;;;;;;;6.40;2.67;;;;;;;;;;5031582;28;20032;-79
2021/05/05 06:51:55;;;;;;;6.15;2.53;;;;;;;;;;5031370;28;20076;-80
2021/05/05 06:54:21;;;;;;;4.30;2.03;;;;;;;;;;5031443;28;20099;-79
2021/05/05 06:56:47;;;;;;;6.50;1.67;;;;;;;;;;5031231;28;20040;-79
2021/05/05 06:59:13;;;;;;;5.28;2.70;;;;;;;;;;5031737;28;20025;-78
2021/05/05 07:01:40;;;;;;;5.55;1.75;;;;;;;;;;5031353;28;20469;-78
2021/05/05 07:04:07;;;;;;;4.45;1.77;;;;;;;;;;5031613;28;20037;-78
2021/05/05 07:06:33;;;;;;;11.80;3.92;;;;;;;;;;5031520;28;20045;-80
2021/05/05 07:09:00;;;;;;;3.83;1.50;;;;;;;;;;5029860;28;20032;-79
2021/05/05 07:11:27;;;;;;;6.15;2.17;;;;;;;;;;5031262;28;20029;-79
2021/05/05 07:13:53;;;;;;;4.60;2.10;;;;;;;;;;5031361;28;20494;-79
2021/05/05 07:16:21;;;;;;;5.05;1.73;;;;;;;;;;5030260;28;20298;-79
2021/05/05 07:18:47;;;;;;;6.40;2.15;;;;;;;;;;5031253;28;20045;-78
2021/05/05 07:21:14;;;;;;;5.10;2.55;;;;;;;;;;5034990;28;20021;-78
2021/05/05 07:23:40;;;;;;;10.65;2.00;;;;;;;;;;5050987;28;20480;-79
2021/05/05 07:26:06;;;;;;;2.75;1.58;;;;;;;;;;5050961;28;20029;-79
2021/05/05 07:28:32;;;;;;;18.20;6.50;;;;;;;;;;5051056;28;20029;-79
2021/05/05 07:30:59;;;;;;;33.40;28.00;;;;;;;;;;5050839;28;20029;-79
2021/05/05 07:33:25;;;;;;;22.88;14.45;;;;;;;;;;5051314;28;20025;-78
2021/05/05 07:35:56;;;;;;;9.85;3.45;;;;;;;;;;5057582;28;20470;-78
2021/05/05 07:46:57;;;;;;;5.15;2.45;;;;;;;;;;5071017;28;20117;-78
2021/05/05 07:49:24;;;;;;;4.82;1.58;;;;;;;;;;5070882;28;20491;-77
2021/05/05 07:51:51;;;;;;;4.32;2.13;;;;;;;;;;5070719;28;20522;-77
2021/05/05 07:54:18;;;;;;;5.28;1.80;;;;;;;;;;5069896;28;20040;-78
2021/05/05 07:56:44;;;;;;;3.55;1.75;;;;;;;;;;5070614;28;20099;-77
2021/05/05 07:59:12;;;;;;;6.88;2.10;;;;;;;;;;5070717;28;20020;-77
2021/05/05 08:01:38;;;;;;;6.15;3.65;;;;;;;;;;5071001;28;20479;-79
2021/05/05 08:04:05;;;;;;;9.68;4.30;;;;;;;;;;5070306;28;20047;-79
2021/05/05 08:06:32;;;;;;;8.10;4.05;;;;;;;;;;5070412;28;20115;-81
2021/05/05 08:08:58;;;;;;;8.95;3.40;;;;;;;;;;5069656;28;20021;-71
2021/05/05 08:11:24;;;;;;;10.85;5.07;;;;;;;;;;5070340;28;20518;-78
2021/05/05 08:13:51;;;;;;;8.02;3.30;;;;;;;;;;5070340;28;20025;-78
2021/05/05 08:16:18;;;;;;;8.65;6.18;;;;;;;;;;5070787;28;20017;-77
2021/05/05 08:18:44;;;;;;;16.60;11.57;;;;;;;;;;5070735;28;20028;-78
2021/05/05 08:21:10;;;;;;;6.75;3.90;;;;;;;;;;5051916;28;20024;-76
2021/05/05 08:23:37;;;;;;;8.35;3.42;;;;;;;;;;5070703;28;20036;-77
2021/05/05 08:26:04;;;;;;;6.03;3.47;;;;;;;;;;5070029;28;20107;-78
2021/05/05 08:28:30;;;;;;;6.97;3.40;;;;;;;;;;5070452;28;20060;-77
2021/05/05 08:30:57;;;;;;;7.05;2.92;;;;;;;;;;5071145;28;20047;-79
2021/05/05 08:33:24;;;;;;;5.50;2.63;;;;;;;;;;5070821;28;20028;-78
2021/05/05 08:35:50;;;;;;;5.70;2.55;;;;;;;;;;5070877;28;20119;-79
2021/05/05 08:38:16;;;;;;;7.13;2.50;;;;;;;;;;5070988;28;20101;-77
2021/05/05 08:40:42;;;;;;;3.72;2.22;;;;;;;;;;5071168;28;20021;-79
2021/05/05 08:43:08;;;;;;;5.20;2.30;;;;;;;;;;5070270;28;20508;-78
2021/05/05 08:45:35;;;;;;;4.78;1.55;;;;;;;;;;5070728;28;20029;-78
2021/05/05 08:48:05;;;;;;;19.52;2.72;;;;;;;;;;5068508;28;20361;-77
2021/05/05 08:50:33;;;;;;;8.90;1.77;;;;;;;;;;5070510;28;20484;-76
2021/05/05 08:52:59;;;;;;;3.63;1.50;;;;;;;;;;5070261;28;20029;-77
2021/05/05 08:55:26;;;;;;;18.48;2.80;;;;;;;;;;5070323;28;20082;-78
2021/05/05 08:57:53;;;;;;;4.68;1.92;;;;;;;;;;5070361;28;20086;-77
2021/05/05 09:00:20;;;;;;;4.72;1.45;;;;;;;;;;5069853;28;20032;-78
2021/05/05 09:02:47;;;;;;;3.92;1.40;;;;;;;;;;5070408;28;20456;-78
2021/05/05 09:05:13;;;;;;;4.50;2.53;;;;;;;;;;5070963;28;20493;-78
2021/05/05 09:07:41;;;;;;;7.38;2.45;;;;;;;;;;5073841;28;20020;-78
2021/05/05 09:10:25;;;;;;;5.07;2.13;;;;;;;;;;5073444;28;20082;-76
2021/05/05 09:12:54;;;;;;;4.68;1.75;;;;;;;;;;5073828;28;20091;-80
2021/05/05 09:15:24;;;;;;;4.60;1.95;;;;;;;;;;5073380;28;20039;-78
2021/05/05 09:17:53;;;;;;;5.03;1.70;;;;;;;;;;5073544;28;20036;-75
2021/05/05 09:20:31;;;;;;;2.90;1.60;;;;;;;;;;5073159;28;20108;-75
2021/05/05 09:23:02;;;;;;;7.38;2.58;;;;;;;;;;5073101;28;20051;-76
2021/05/05 09:25:30;;;;;;;2.33;1.40;;;;;;;;;;5072204;28;20056;-76
2021/05/05 09:28:10;;;;;;;8.25;1.80;;;;;;;;;;5072839;28;20056;-77
2021/05/05 09:30:39;;;;;;;6.75;2.08;;;;;;;;;;5070969;28;20107;-76
2021/05/05 09:33:06;;;;;;;4.10;1.50;;;;;;;;;;5072559;28;20016;-77
2021/05/05 09:35:33;;;;;;;9.20;2.20;;;;;;;;;;5072404;28;20048;-76
2021/05/05 09:38:00;;;;;;;2.47;0.98;;;;;;;;;;5072324;28;20016;-77
2021/05/05 09:40:27;;;;;;;5.50;1.60;;;;;;;;;;5072226;28;20025;-77
2021/05/05 09:42:53;;;;;;;2.70;0.90;;;;;;;;;;5073215;28;20103;-78
2021/05/05 09:45:20;;;;;;;4.82;1.80;;;;;;;;;;5072804;28;20035;-76
2021/05/05 09:47:50;;;;;;;5.30;1.92;;;;;;;;;;5071714;28;20577;-77
2021/05/05 09:50:36;;;;;;;19.65;17.38;;;;;;;;;;5072377;28;20391;-77
2021/05/05 09:53:18;;;;;;;3.00;1.38;;;;;;;;;;5072807;28;20043;-76
2021/05/05 09:55:45;;;;;;;2.95;1.17;;;;;;;;;;5054985;28;20459;-77
2021/05/05 09:58:20;;;;;;;4.07;1.02;;;;;;;;;;5054722;28;20086;-76
2021/05/05 10:00:48;;;;;;;4.65;1.30;;;;;;;;;;5071759;28;20111;-76
2021/05/05 10:03:14;;;;;;;5.63;1.50;;;;;;;;;;5072880;28;20430;-76
2021/05/05 10:05:40;;;;;;;3.85;1.00;;;;;;;;;;5072609;28;20060;-78
2021/05/05 10:08:09;;;;;;;4.72;2.00;;;;;;;;;;5072746;28;20032;-77
2021/05/05 10:10:38;;;;;;;3.72;1.15;;;;;;;;;;5072283;28;20467;-76
2021/05/05 10:13:06;;;;;;;4.45;1.23;;;;;;;;;;5072503;28;20025;-77
2021/05/05 10:15:36;;;;;;;2.40;1.20;;;;;;;;;;5071664;28;20376;-78
2021/05/05 10:18:03;;;;;;;3.45;1.17;;;;;;;;;;5071401;28;20048;-77
2021/05/05 10:20:30;;;;;;;3.50;1.20;;;;;;;;;;5070985;28;20025;-77
2021/05/05 10:23:00;;;;;;;4.45;1.65;;;;;;;;;;5071882;28;20487;-77
2021/05/05 10:25:27;;;;;;;4.75;1.38;;;;;;;;;;5071055;28;20032;-77
2021/05/05 10:27:54;;;;;;;8.18;5.05;;;;;;;;;;5053609;28;20032;-76
2021/05/05 10:30:25;;;;;;;8.00;3.17;;;;;;;;;;5071241;28;20036;-78
2021/05/05 10:32:52;;;;;;;4.88;2.10;;;;;;;;;;5070594;28;20041;-77
2021/05/05 10:35:19;;;;;;;6.10;2.40;;;;;;;;;;5070822;28;20480;-77
2021/05/05 10:37:45;;;;;;;3.25;1.30;;;;;;;;;;5069836;28;20047;-79
2021/05/05 10:40:20;;;;;;;2.78;1.50;;;;;;;;;;5071683;28;20395;-77
2021/05/05 10:42:53;;;;;;;5.72;1.02;;;;;;;;;;5071697;28;20111;-77
2021/05/05 10:45:32;;;;;;;5.25;1.98;;;;;;;;;;5052878;28;20123;-81
2021/05/05 10:48:17;;;;;;;9.93;1.27;;;;;;;;;;5070701;28;20024;-77
2021/05/05 10:50:51;;;;;;;7.00;1.70;;;;;;;;;;5067866;28;20024;-76
2021/05/05 10:53:18;;;;;;;2.80;0.73;;;;;;;;;;5066114;28;20027;-77
2021/05/05 10:55:49;;;;;;;1.55;0.57;;;;;;;;;;5069137;28;20753;-75
2021/05/05 10:58:17;;;;;;;7.97;1.77;;;;;;;;;;5069896;28;20017;-76
2021/05/05 11:00:54;;;;;;;2.42;0.90;;;;;;;;;;5065637;28;20399;-72
2021/05/05 11:03:40;;;;;;;3.88;1.27;;;;;;;;;;5067924;28;20063;-77
2021/05/05 11:06:25;;;;;;;3.88;0.93;;;;;;;;;;5069713;28;20056;-76
2021/05/05 11:08:52;;;;;;;3.15;1.10;;;;;;;;;;5051119;28;20029;-77
2021/05/05 11:11:34;;;;;;;3.88;1.92;;;;;;;;;;5051655;28;20025;-76
2021/05/05 11:14:00;;;;;;;6.18;1.92;;;;;;;;;;5068550;28;20059;-76
2021/05/05 11:16:47;;;;;;;14.68;2.63;;;;;;;;;;5070314;28;20028;-79
2021/05/05 11:19:35;;;;;;;3.80;1.30;;;;;;;;;;5052355;28;20039;-76
2021/05/05 11:22:02;;;;;;;3.72;1.40;;;;;;;;;;5051562;28;20020;-76
2021/05/05 11:24:29;;;;;;;2.40;1.27;;;;;;;;;;5036536;28;20032;-76
2021/05/05 11:26:56;;;;;;;11.88;1.75;;;;;;;;;;5070977;28;20021;-77
2021/05/05 11:29:41;;;;;;;4.03;1.85;;;;;;;;;;5070968;28;20035;-76
2021/05/05 11:32:25;;;;;;;4.32;1.27;;;;;;;;;;5069943;28;20115;-77
2021/05/05 11:34:52;;;;;;;2.88;0.98;;;;;;;;;;5051126;28;20031;-77
2021/05/05 11:37:39;;;;;;;5.50;1.50;;;;;;;;;;5070086;28;20130;-78
2021/05/05 11:40:06;;;;;;;4.85;1.40;;;;;;;;;;5050582;28;20020;-75
2021/05/05 11:42:33;;;;;;;2.17;0.88;;;;;;;;;;5071130;28;20027;-76
2021/05/05 11:45:01;;;;;;;2.70;1.13;;;;;;;;;;5070356;28;20035;-77
2021/05/05 11:47:28;;;;;;;3.40;1.40;;;;;;;;;;5070628;28;20056;-77
2021/05/05 11:49:59;;;;;;;5.05;1.52;;;;;;;;;;5069939;28;20497;-76
2021/05/05 11:52:25;;;;;;;4.32;1.30;;;;;;;;;;5070746;28;20513;-76
2021/05/05 11:54:56;;;;;;;7.35;1.52;;;;;;;;;;5070650;28;20074;-76
2021/05/05 11:57:23;;;;;;;5.00;1.85;;;;;;;;;;5070775;28;20028;-77
2021/05/05 11:59:49;;;;;;;5.18;1.27;;;;;;;;;;5069943;28;20046;-77
2021/05/05 12:02:17;;;;;;;3.33;1.20;;;;;;;;;;5070347;28;20032;-76
2021/05/05 12:04:43;;;;;;;8.75;5.55;;;;;;;;;;5070532;28;20526;-77
2021/05/05 12:07:11;;;;;;;4.50;2.05;;;;;;;;;;5070643;28;20525;-77
2021/05/05 12:09:40;;;;;;;3.22;1.00;;;;;;;;;;5070761;28;20036;-77
2021/05/05 12:12:10;;;;;;;3.88;0.60;;;;;;;;;;5070459;28;20073;-79
2021/05/05 12:14:36;;;;;;;3.50;1.13;;;;;;;;;;5070698;28;20067;-78
2021/05/05 12:17:32;;;;;;;5.47;1.30;;;;;;;;;;5070283;28;20028;-78
2021/05/05 12:20:04;;;;;;;4.25;1.50;;;;;;;;;;5070360;28;20655;-77
2021/05/05 12:22:31;;;;;;;7.15;2.33;;;;;;;;;;5070078;28;20112;-76
2021/05/05 12:25:15;;;;;;;6.15;3.00;;;;;;;;;;5070036;28;20043;-77
2021/05/05 12:28:00;;;;;;;7.07;2.05;;;;;;;;;;5070288;28;20361;-77
2021/05/05 12:30:35;;;;;;;4.43;1.25;;;;;;;;;;5070690;28;20029;-77
2021/05/05 12:33:01;;;;;;;6.72;1.30;;;;;;;;;;5069188;28;20040;-76
2021/05/05 12:35:27;;;;;;;11.45;6.20;;;;;;;;;;5070279;28;20072;-78
2021/05/05 12:37:55;;;;;;;4.85;1.40;;;;;;;;;;5069967;28;20032;-77
2021/05/05 12:40:25;;;;;;;4.18;1.10;;;;;;;;;;5072084;28;20055;-79
2021/05/05 12:42:51;;;;;;;4.13;1.23;;;;;;;;;;5073724;28;20028;-78
2021/05/05 12:45:18;;;;;;;3.03;1.00;;;;;;;;;;5073516;28;20145;-79
2021/05/05 12:47:46;;;;;;;3.33;0.80;;;;;;;;;;5074501;28;20107;-77
2021/05/05 12:50:13;;;;;;;2.40;1.08;;;;;;;;;;5074627;28;20103;-78
2021/05/05 12:52:40;;;;;;;25.23;17.63;;;;;;;;;;5075218;28;20025;-78
2021/05/05 12:55:25;;;;;;;33.53;27.90;;;;;;;;;;5073592;28;20033;-77
2021/05/05 12:58:03;;;;;;;6.15;2.80;;;;;;;;;;5075018;28;20060;-77
2021/05/05 13:00:30;;;;;;;5.28;1.35;;;;;;;;;;5074959;28;20071;-78
2021/05/05 13:03:15;;;;;;;7.18;1.42;;;;;;;;;;5056531;28;20123;-79
2021/05/05 13:05:59;;;;;;;4.00;1.00;;;;;;;;;;5073545;28;20056;-77
2021/05/05 13:08:36;;;;;;;5.65;1.10;;;;;;;;;;5074926;28;20077;-77
2021/05/05 13:11:07;;;;;;;2.40;1.00;;;;;;;;;;5074493;28;20029;-78
2021/05/05 13:13:43;;;;;;;4.10;1.05;;;;;;;;;;5074841;28;20485;-77
2021/05/05 13:32:35;;;;;;;3.45;1.38;;;;;;;;;;5073423;28;20395;-77
2021/05/05 13:35:24;;;;;;;3.15;1.05;;;;;;;;;;5074486;28;20028;-77
2021/05/05 13:38:09;;;;;;;2.97;0.88;;;;;;;;;;5074642;28;20048;-77
2021/05/05 13:40:55;;;;;;;27.73;8.00;;;;;;;;;;5074585;28;20043;-76
2021/05/05 13:50:50;;;;;;;6.85;1.80;;;;;;;;;;5073449;28;20078;-76
2021/05/05 13:53:16;;;;;;;3.70;1.20;;;;;;;;;;5073914;28;20086;-76
2021/05/05 13:55:42;;;;;;;6.10;1.02;;;;;;;;;;5056357;28;20046;-76
2021/05/05 13:58:08;;;;;;;6.90;1.02;;;;;;;;;;5073890;28;20033;-76
2021/05/05 14:00:34;;;;;;;7.00;2.40;;;;;;;;;;5056098;28;20028;-76
2021/05/05 14:03:01;;;;;;;42.13;12.60;;;;;;;;;;5074009;28;20434;-77
2021/05/05 14:05:32;;;;;;;10.77;2.80;;;;;;;;;;5073532;28;20388;-77
2021/05/05 14:07:58;;;;;;;9.82;2.47;;;;;;;;;;5073906;28;20523;-77
2021/05/05 14:10:24;;;;;;;32.95;14.07;;;;;;;;;;5073937;28;20024;-76
2021/05/05 14:12:50;;;;;;;33.25;22.35;;;;;;;;;;5073533;28;20067;-76
2021/05/05 14:15:17;;;;;;;7.90;4.68;;;;;;;;;;5073564;28;20021;-77
2021/05/05 14:17:43;;;;;;;10.82;3.40;;;;;;;;;;5073877;28;20043;-75
2021/05/05 14:20:10;;;;;;;18.05;5.63;;;;;;;;;;5073608;28;20345;-77
2021/05/05 14:22:36;;;;;;;7.35;2.53;;;;;;;;;;5055077;28;20455;-77
2021/05/05 14:25:06;;;;;;;6.72;1.70;;;;;;;;;;5073714;28;20058;-77
2021/05/05 14:27:33;;;;;;;8.45;5.07;;;;;;;;;;5053440;28;20048;-76
2021/05/05 14:29:59;;;;;;;5.43;3.17;;;;;;;;;;5053922;28;20021;-76
2021/05/05 14:32:25;;;;;;;4.80;1.42;;;;;;;;;;5053517;28;20051;-77
2021/05/05 14:34:51;;;;;;;3.75;1.10;;;;;;;;;;5053084;28;20032;-77
2021/05/05 14:37:18;;;;;;;8.02;1.40;;;;;;;;;;5053170;28;20053;-77
2021/05/05 14:39:45;;;;;;;5.07;1.20;;;;;;;;;;5053296;28;20366;-77
2021/05/05 14:42:16;;;;;;;8.73;1.60;;;;;;;;;;5053371;28;20451;-76
2021/05/05 14:50:12;;;;;;;5.80;1.30;;;;;;;;;;5072975;28;20043;-76
2021/05/05 14:52:38;;;;;;;6.13;1.42;;;;;;;;;;5072884;28;20116;-76
2021/05/05 14:55:05;;;;;;;14.95;10.82;;;;;;;;;;5073102;28;20456;-76
2021/05/05 14:57:35;;;;;;;12.68;8.77;;;;;;;;;;5072721;28;20031;-76
2021/05/05 15:00:01;;;;;;;18.08;6.82;;;;;;;;;;5072987;28;20069;-75
2021/05/05 15:02:27;;;;;;;7.43;1.77;;;;;;;;;;5072328;28;20033;-76
2021/05/05 15:04:53;;;;;;;4.97;1.50;;;;;;;;;;5072629;28;20142;-76
2021/05/05 15:07:19;;;;;;;5.18;1.75;;;;;;;;;;5073045;28;20067;-77
2021/05/05 15:09:54;;;;;;;8.02;2.15;;;;;;;;;;5072771;28;20032;-76
2021/05/05 15:12:36;;;;;;;3.97;1.10;;;;;;;;;;5072709;28;20032;-76
2021/05/05 15:36:37;;;;;;;3.13;1.13;;;;;;;;;;5072099;28;20556;-76
2021/05/05 15:39:10;;;;;;;3.28;1.05;;;;;;;;;;5072664;28;20099;-76
2021/05/05 15:41:46;;;;;;;3.80;1.10;;;;;;;;;;5071726;28;20028;-76
2021/05/05 15:49:34;;;;;;;2.80;1.35;;;;;;;;;;5071951;28;20494;-76
2021/05/05 15:52:00;;;;;;;;;;;;;;;;;;5077232;28;20082;-77